sensor_id;sensor_type;location;lat;lon;timestamp;temperature;humidity
28715;DHT22;15886;49.170;14.572;2023-03-01T00:03:20;-0.50;99.90
28715;DHT22;15886;49.170;14.572;2023-03-01T00:07:07;-0.60;99.90
28715;DHT22;15886;49.170;14.572;2023-03-01T00:10:41;-0.60;99.90
28715;DHT22;15886;49.170;14.572;2023-03-01T00:14:22;-0.70;99.90
28715;DHT22;15886;49.170;14.572;2023-03-01T00:17:34;-0.70;99.90
28715;DHT22;15886;49.170;14.572;2023-03-01T00:48:13;-0.90;99.90
28715;DHT22;15886;49.170;14.572;2023-03-01T01:19:51;-1.10;99.90
28715;DHT22;15886;49.170;14.572;2023-03-01T03:17:54;-0.90;99.90
28715;DHT22;15886;49.170;14.572;2023-03-01T03:29:55;-0.80;99.90
28715;DHT22;15886;49.170;14.572;2023-03-01T03:39:29;-0.80;99.90
28715;DHT22;15886;49.170;14.572;2023-03-01T03:59:53;-0.70;99.90
28715;DHT22;15886;49.170;14.572;2023-03-01T04:02:42;-0.70;99.90
28715;DHT22;15886;49.170;14.572;2023-03-01T04:27:00;-1.30;99.90
28715;DHT22;15886;49.170;14.572;2023-03-01T05:55:40;-1.60;99.90
28715;DHT22;15886;49.170;14.572;2023-03-01T09:50:10;4.90;97.80
28715;DHT22;15886;49.170;14.572;2023-03-01T10:03:25;5.50;95.70
28715;DHT22;15886;49.170;14.572;2023-03-01T10:11:38;6.10;95.20
28715;DHT22;15886;49.170;14.572;2023-03-01T10:14:50;6.30;94.00
28715;DHT22;15886;49.170;14.572;2023-03-01T10:23:04;6.70;92.70
28715;DHT22;15886;49.170;14.572;2023-03-01T10:29:46;6.90;91.80
28715;DHT22;15886;49.170;14.572;2023-03-01T10:36:51;7.30;89.80
28715;DHT22;15886;49.170;14.572;2023-03-01T10:40:08;7.30;90.30
28715;DHT22;15886;49.170;14.572;2023-03-01T10:42:50;7.50;90.80
28715;DHT22;15886;49.170;14.572;2023-03-01T10:45:39;7.70;90.60
28715;DHT22;15886;49.170;14.572;2023-03-01T10:49:19;7.80;88.60
28715;DHT22;15886;49.170;14.572;2023-03-01T10:52:20;8.10;84.70
28715;DHT22;15886;49.170;14.572;2023-03-01T10:55:44;8.10;85.40
28715;DHT22;15886;49.170;14.572;2023-03-01T10:59:34;8.40;82.90
28715;DHT22;15886;49.170;14.572;2023-03-01T11:05:35;8.80;80.40
28715;DHT22;15886;49.170;14.572;2023-03-01T11:08:54;8.80;76.20
28715;DHT22;15886;49.170;14.572;2023-03-01T11:12:01;8.80;76.10
28715;DHT22;15886;49.170;14.572;2023-03-01T11:15:29;8.80;78.70
28715;DHT22;15886;49.170;14.572;2023-03-01T11:23:13;8.60;76.90
28715;DHT22;15886;49.170;14.572;2023-03-01T11:26:36;8.70;78.20
28715;DHT22;15886;49.170;14.572;2023-03-01T11:30:07;8.50;80.40
28715;DHT22;15886;49.170;14.572;2023-03-01T12:01:18;10.50;75.80
28715;DHT22;15886;49.170;14.572;2023-03-01T12:08:00;10.60;74.80
28715;DHT22;15886;49.170;14.572;2023-03-01T12:24:35;11.20;68.60
28715;DHT22;15886;49.170;14.572;2023-03-01T12:48:55;11.90;66.90
28715;DHT22;15886;49.170;14.572;2023-03-01T12:51:34;12.00;64.60
28715;DHT22;15886;49.170;14.572;2023-03-01T12:54:26;12.20;64.10
28715;DHT22;15886;49.170;14.572;2023-03-01T12:57:34;12.20;64.50
28715;DHT22;15886;49.170;14.572;2023-03-01T13:11:43;12.30;64.30
28715;DHT22;15886;49.170;14.572;2023-03-01T13:14:45;12.30;62.00
28715;DHT22;15886;49.170;14.572;2023-03-01T13:21:30;12.40;62.20
28715;DHT22;15886;49.170;14.572;2023-03-01T13:24:43;12.60;62.30
28715;DHT22;15886;49.170;14.572;2023-03-01T13:27:33;12.60;62.40
28715;DHT22;15886;49.170;14.572;2023-03-01T13:34:06;12.70;62.00
28715;DHT22;15886;49.170;14.572;2023-03-01T13:37:10;12.70;60.60
28715;DHT22;15886;49.170;14.572;2023-03-01T13:43:38;12.80;61.30
28715;DHT22;15886;49.170;14.572;2023-03-01T13:46:27;12.60;62.70
28715;DHT22;15886;49.170;14.572;2023-03-01T13:49:21;12.40;61.10
28715;DHT22;15886;49.170;14.572;2023-03-01T13:52:05;12.10;61.50
28715;DHT22;15886;49.170;14.572;2023-03-01T13:54:48;11.90;62.70
28715;DHT22;15886;49.170;14.572;2023-03-01T13:57:23;11.80;61.70
28715;DHT22;15886;49.170;14.572;2023-03-01T13:59:54;11.60;63.30
28715;DHT22;15886;49.170;14.572;2023-03-01T14:02:45;11.30;63.80
28715;DHT22;15886;49.170;14.572;2023-03-01T14:05:38;10.80;65.50
28715;DHT22;15886;49.170;14.572;2023-03-01T14:08:25;10.60;67.10
28715;DHT22;15886;49.170;14.572;2023-03-01T14:20:45;10.50;68.20
28715;DHT22;15886;49.170;14.572;2023-03-01T14:24:26;10.40;68.40
28715;DHT22;15886;49.170;14.572;2023-03-01T14:27:11;10.10;69.20
28715;DHT22;15886;49.170;14.572;2023-03-01T14:31:31;9.90;70.60
28715;DHT22;15886;49.170;14.572;2023-03-01T14:34:54;9.60;71.80
28715;DHT22;15886;49.170;14.572;2023-03-01T14:37:52;9.50;73.30
28715;DHT22;15886;49.170;14.572;2023-03-01T14:46:55;9.40;74.40
28715;DHT22;15886;49.170;14.572;2023-03-01T14:50:25;9.30;75.70
28715;DHT22;15886;49.170;14.572;2023-03-01T14:53:44;9.20;77.00
28715;DHT22;15886;49.170;14.572;2023-03-01T14:57:05;9.10;77.20
28715;DHT22;15886;49.170;14.572;2023-03-01T15:21:48;8.20;84.60
28715;DHT22;15886;49.170;14.572;2023-03-01T15:40:32;7.70;90.40
28715;DHT22;15886;49.170;14.572;2023-03-01T15:52:35;7.60;92.20
28715;DHT22;15886;49.170;14.572;2023-03-01T15:55:30;7.40;93.00
28715;DHT22;15886;49.170;14.572;2023-03-01T16:04:42;7.00;94.10
28715;DHT22;15886;49.170;14.572;2023-03-01T16:07:37;6.80;95.00
28715;DHT22;15886;49.170;14.572;2023-03-01T16:10:14;6.70;95.60
28715;DHT22;15886;49.170;14.572;2023-03-01T16:16:19;6.60;97.10
28715;DHT22;15886;49.170;14.572;2023-03-01T16:18:48;6.60;97.50
28715;DHT22;15886;49.170;14.572;2023-03-01T16:21:25;6.60;97.90
28715;DHT22;15886;49.170;14.572;2023-03-01T16:27:24;6.40;98.80
28715;DHT22;15886;49.170;14.572;2023-03-01T16:30:48;6.50;98.90
28715;DHT22;15886;49.170;14.572;2023-03-01T16:36:39;6.70;98.60
28715;DHT22;15886;49.170;14.572;2023-03-01T16:39:45;6.70;98.50
28715;DHT22;15886;49.170;14.572;2023-03-01T16:45:17;6.20;99.90
28715;DHT22;15886;49.170;14.572;2023-03-01T16:51:01;5.90;99.90
28715;DHT22;15886;49.170;14.572;2023-03-01T16:53:59;5.80;99.90
28715;DHT22;15886;49.170;14.572;2023-03-01T16:56:43;5.80;99.90
28715;DHT22;15886;49.170;14.572;2023-03-01T17:00:13;5.70;99.90
28715;DHT22;15886;49.170;14.572;2023-03-01T17:03:24;5.50;99.90
28715;DHT22;15886;49.170;14.572;2023-03-01T17:06:07;5.40;99.90
28715;DHT22;15886;49.170;14.572;2023-03-01T17:08:36;5.40;99.90
28715;DHT22;15886;49.170;14.572;2023-03-01T17:11:18;5.30;99.90
28715;DHT22;15886;49.170;14.572;2023-03-01T17:13:47;5.30;99.90
28715;DHT22;15886;49.170;14.572;2023-03-01T17:16:18;5.20;99.90
28715;DHT22;15886;49.170;14.572;2023-03-01T17:25:13;4.90;99.90
28715;DHT22;15886;49.170;14.572;2023-03-01T17:28:11;4.80;99.90
28715;DHT22;15886;49.170;14.572;2023-03-01T17:30:54;4.70;99.90
28715;DHT22;15886;49.170;14.572;2023-03-01T17:33:39;4.60;99.90
28715;DHT22;15886;49.170;14.572;2023-03-01T17:36:23;4.50;99.90
28715;DHT22;15886;49.170;14.572;2023-03-01T17:39:21;4.50;99.90
28715;DHT22;15886;49.170;14.572;2023-03-01T17:48:10;4.20;99.90
28715;DHT22;15886;49.170;14.572;2023-03-01T17:54:04;4.10;99.90
28715;DHT22;15886;49.170;14.572;2023-03-01T17:56:36;4.00;99.90
28715;DHT22;15886;49.170;14.572;2023-03-01T18:01:09;4.00;99.90
28715;DHT22;15886;49.170;14.572;2023-03-01T18:06:49;3.70;99.90
28715;DHT22;15886;49.170;14.572;2023-03-01T18:09:17;3.60;99.90
28715;DHT22;15886;49.170;14.572;2023-03-01T18:11:47;3.50;99.90
28715;DHT22;15886;49.170;14.572;2023-03-01T18:14:41;3.40;99.90
28715;DHT22;15886;49.170;14.572;2023-03-01T18:17:10;3.40;99.90
28715;DHT22;15886;49.170;14.572;2023-03-01T18:19:39;3.30;99.90
28715;DHT22;15886;49.170;14.572;2023-03-01T18:22:09;3.20;99.90
28715;DHT22;15886;49.170;14.572;2023-03-01T18:24:43;3.10;99.90
28715;DHT22;15886;49.170;14.572;2023-03-01T18:27:19;3.10;99.90
28715;DHT22;15886;49.170;14.572;2023-03-01T18:29:47;3.00;99.90
28715;DHT22;15886;49.170;14.572;2023-03-01T18:32:17;2.90;99.90
28715;DHT22;15886;49.170;14.572;2023-03-01T18:34:47;2.90;99.90
28715;DHT22;15886;49.170;14.572;2023-03-01T18:37:19;2.90;99.90
28715;DHT22;15886;49.170;14.572;2023-03-01T18:39:52;2.90;99.90
28715;DHT22;15886;49.170;14.572;2023-03-01T18:42:24;3.00;99.90
28715;DHT22;15886;49.170;14.572;2023-03-01T18:44:56;3.00;99.90
28715;DHT22;15886;49.170;14.572;2023-03-01T18:47:31;3.00;99.90
28715;DHT22;15886;49.170;14.572;2023-03-01T18:49:59;3.00;99.90
28715;DHT22;15886;49.170;14.572;2023-03-01T18:52:28;3.00;99.90
28715;DHT22;15886;49.170;14.572;2023-03-01T18:54:59;3.00;99.90
28715;DHT22;15886;49.170;14.572;2023-03-01T18:57:28;2.90;99.90
28715;DHT22;15886;49.170;14.572;2023-03-01T19:00:22;2.90;99.90
28715;DHT22;15886;49.170;14.572;2023-03-01T19:03:01;2.90;99.90
28715;DHT22;15886;49.170;14.572;2023-03-01T19:06:51;2.90;99.90
28715;DHT22;15886;49.170;14.572;2023-03-01T19:13:06;2.80;99.90
28715;DHT22;15886;49.170;14.572;2023-03-01T19:18:55;2.70;99.90
28715;DHT22;15886;49.170;14.572;2023-03-01T19:21:30;2.60;99.90
28715;DHT22;15886;49.170;14.572;2023-03-01T19:23:59;2.60;99.90
28715;DHT22;15886;49.170;14.572;2023-03-01T19:26:29;2.50;99.90
28715;DHT22;15886;49.170;14.572;2023-03-01T19:28:58;2.50;99.90
28715;DHT22;15886;49.170;14.572;2023-03-01T19:31:29;2.40;99.90
28715;DHT22;15886;49.170;14.572;2023-03-01T19:33:59;2.30;99.90
28715;DHT22;15886;49.170;14.572;2023-03-01T19:36:41;2.30;99.90
28715;DHT22;15886;49.170;14.572;2023-03-01T19:39:26;2.20;99.90
28715;DHT22;15886;49.170;14.572;2023-03-01T19:42:33;2.20;99.90
28715;DHT22;15886;49.170;14.572;2023-03-01T19:45:02;2.10;99.90
28715;DHT22;15886;49.170;14.572;2023-03-01T19:47:34;2.10;99.90
28715;DHT22;15886;49.170;14.572;2023-03-01T19:50:05;2.10;99.90
28715;DHT22;15886;49.170;14.572;2023-03-01T19:52:36;2.00;99.90
28715;DHT22;15886;49.170;14.572;2023-03-01T19:55:06;2.10;99.90
28715;DHT22;15886;49.170;14.572;2023-03-01T19:57:37;2.10;99.90
28715;DHT22;15886;49.170;14.572;2023-03-01T20:00:38;2.00;99.90
28715;DHT22;15886;49.170;14.572;2023-03-01T20:03:31;2.00;99.90
28715;DHT22;15886;49.170;14.572;2023-03-01T20:08:52;1.90;99.90
28715;DHT22;15886;49.170;14.572;2023-03-01T20:11:27;1.90;99.90
28715;DHT22;15886;49.170;14.572;2023-03-01T20:17:25;1.80;99.90
28715;DHT22;15886;49.170;14.572;2023-03-01T20:20:23;1.80;99.90
28715;DHT22;15886;49.170;14.572;2023-03-01T20:22:54;1.80;99.90
28715;DHT22;15886;49.170;14.572;2023-03-01T20:25:24;1.70;99.90
28715;DHT22;15886;49.170;14.572;2023-03-01T20:27:53;1.70;99.90
28715;DHT22;15886;49.170;14.572;2023-03-01T20:30:22;1.70;99.90
28715;DHT22;15886;49.170;14.572;2023-03-01T20:32:52;1.60;99.90
28715;DHT22;15886;49.170;14.572;2023-03-01T20:35:21;1.60;99.90
28715;DHT22;15886;49.170;14.572;2023-03-01T20:37:51;1.60;99.90
28715;DHT22;15886;49.170;14.572;2023-03-01T20:40:44;1.60;99.90
28715;DHT22;15886;49.170;14.572;2023-03-01T20:44:19;1.60;99.90
28715;DHT22;15886;49.170;14.572;2023-03-01T20:46:49;1.60;99.90
28715;DHT22;15886;49.170;14.572;2023-03-01T20:49:19;1.60;99.90
28715;DHT22;15886;49.170;14.572;2023-03-01T20:51:49;1.60;99.90
28715;DHT22;15886;49.170;14.572;2023-03-01T20:54:18;1.60;99.90
28715;DHT22;15886;49.170;14.572;2023-03-01T20:56:53;1.50;99.90
28715;DHT22;15886;49.170;14.572;2023-03-01T20:59:22;1.50;99.90
28715;DHT22;15886;49.170;14.572;2023-03-01T21:01:51;1.50;99.90
28715;DHT22;15886;49.170;14.572;2023-03-01T21:04:19;1.50;99.90
28715;DHT22;15886;49.170;14.572;2023-03-01T21:06:49;1.50;99.90
28715;DHT22;15886;49.170;14.572;2023-03-01T21:09:20;1.60;99.90
28715;DHT22;15886;49.170;14.572;2023-03-01T21:11:50;1.60;99.90
28715;DHT22;15886;49.170;14.572;2023-03-01T21:14:19;1.60;99.90
28715;DHT22;15886;49.170;14.572;2023-03-01T21:16:49;1.60;99.90
28715;DHT22;15886;49.170;14.572;2023-03-01T21:19:18;1.60;99.90
28715;DHT22;15886;49.170;14.572;2023-03-01T21:21:54;1.60;99.90
28715;DHT22;15886;49.170;14.572;2023-03-01T21:24:24;1.50;99.90
28715;DHT22;15886;49.170;14.572;2023-03-01T21:26:52;1.50;99.90
28715;DHT22;15886;49.170;14.572;2023-03-01T21:29:21;1.50;99.90
28715;DHT22;15886;49.170;14.572;2023-03-01T21:32:04;1.60;99.90
28715;DHT22;15886;49.170;14.572;2023-03-01T21:34:36;1.60;99.90
28715;DHT22;15886;49.170;14.572;2023-03-01T21:37:09;1.70;99.90
28715;DHT22;15886;49.170;14.572;2023-03-01T21:39:38;1.60;99.90
28715;DHT22;15886;49.170;14.572;2023-03-01T21:42:11;1.60;99.90
28715;DHT22;15886;49.170;14.572;2023-03-01T21:44:39;1.50;99.90
28715;DHT22;15886;49.170;14.572;2023-03-01T21:47:09;1.50;99.90
28715;DHT22;15886;49.170;14.572;2023-03-01T21:49:37;1.40;99.90
28715;DHT22;15886;49.170;14.572;2023-03-01T21:52:13;1.40;99.90
28715;DHT22;15886;49.170;14.572;2023-03-01T21:54:43;1.30;99.90
28715;DHT22;15886;49.170;14.572;2023-03-01T21:57:12;1.30;99.90
28715;DHT22;15886;49.170;14.572;2023-03-01T21:59:41;1.30;99.90
28715;DHT22;15886;49.170;14.572;2023-03-01T22:02:11;1.30;99.90
28715;DHT22;15886;49.170;14.572;2023-03-01T22:04:41;1.30;99.90
28715;DHT22;15886;49.170;14.572;2023-03-01T22:07:09;1.30;99.90
28715;DHT22;15886;49.170;14.572;2023-03-01T22:09:39;1.40;99.90
28715;DHT22;15886;49.170;14.572;2023-03-01T22:12:07;1.40;99.90
28715;DHT22;15886;49.170;14.572;2023-03-01T22:14:38;1.40;99.90
28715;DHT22;15886;49.170;14.572;2023-03-01T22:17:07;1.30;99.90
28715;DHT22;15886;49.170;14.572;2023-03-01T22:19:35;1.30;99.90
28715;DHT22;15886;49.170;14.572;2023-03-01T22:22:04;1.20;99.90
28715;DHT22;15886;49.170;14.572;2023-03-01T22:24:32;1.20;99.90
28715;DHT22;15886;49.170;14.572;2023-03-01T22:27:00;1.10;99.90
28715;DHT22;15886;49.170;14.572;2023-03-01T22:29:29;1.20;99.90
28715;DHT22;15886;49.170;14.572;2023-03-01T22:31:58;1.10;99.90
28715;DHT22;15886;49.170;14.572;2023-03-01T22:34:26;1.10;99.90
28715;DHT22;15886;49.170;14.572;2023-03-01T22:36:54;1.10;99.90
28715;DHT22;15886;49.170;14.572;2023-03-01T22:39:23;1.10;99.90
28715;DHT22;15886;49.170;14.572;2023-03-01T22:41:53;1.10;99.90
28715;DHT22;15886;49.170;14.572;2023-03-01T22:44:22;1.10;99.90
28715;DHT22;15886;49.170;14.572;2023-03-01T22:46:51;1.10;99.90
28715;DHT22;15886;49.170;14.572;2023-03-01T22:49:19;1.10;99.90
28715;DHT22;15886;49.170;14.572;2023-03-01T22:51:50;1.10;99.90
28715;DHT22;15886;49.170;14.572;2023-03-01T22:54:19;1.10;99.90
28715;DHT22;15886;49.170;14.572;2023-03-01T22:56:48;1.00;99.90
28715;DHT22;15886;49.170;14.572;2023-03-01T22:59:20;1.00;99.90
28715;DHT22;15886;49.170;14.572;2023-03-01T23:01:53;1.00;99.90
28715;DHT22;15886;49.170;14.572;2023-03-01T23:04:22;1.00;99.90
28715;DHT22;15886;49.170;14.572;2023-03-01T23:06:51;1.00;99.90
28715;DHT22;15886;49.170;14.572;2023-03-01T23:09:25;0.90;99.90
28715;DHT22;15886;49.170;14.572;2023-03-01T23:11:54;0.90;99.90
28715;DHT22;15886;49.170;14.572;2023-03-01T23:14:24;0.90;99.90
28715;DHT22;15886;49.170;14.572;2023-03-01T23:16:56;0.90;99.90
28715;DHT22;15886;49.170;14.572;2023-03-01T23:19:28;0.90;99.90
28715;DHT22;15886;49.170;14.572;2023-03-01T23:21:57;0.90;99.90
28715;DHT22;15886;49.170;14.572;2023-03-01T23:24:26;0.80;99.90
28715;DHT22;15886;49.170;14.572;2023-03-01T23:27:01;0.90;99.90
28715;DHT22;15886;49.170;14.572;2023-03-01T23:29:30;0.90;99.90
28715;DHT22;15886;49.170;14.572;2023-03-01T23:32:00;0.90;99.90
28715;DHT22;15886;49.170;14.572;2023-03-01T23:34:30;1.00;99.90
28715;DHT22;15886;49.170;14.572;2023-03-01T23:36:58;1.20;99.90
28715;DHT22;15886;49.170;14.572;2023-03-01T23:39:27;1.30;99.90
28715;DHT22;15886;49.170;14.572;2023-03-01T23:41:56;1.40;99.90
28715;DHT22;15886;49.170;14.572;2023-03-01T23:44:25;1.50;99.90
28715;DHT22;15886;49.170;14.572;2023-03-01T23:46:55;1.50;99.90
28715;DHT22;15886;49.170;14.572;2023-03-01T23:49:25;1.50;99.90
28715;DHT22;15886;49.170;14.572;2023-03-01T23:51:54;1.40;99.90
28715;DHT22;15886;49.170;14.572;2023-03-01T23:54:24;1.40;99.90
28715;DHT22;15886;49.170;14.572;2023-03-01T23:56:52;1.40;99.90
28715;DHT22;15886;49.170;14.572;2023-03-01T23:59:26;1.40;99.90
